Latest Coastal Weather Observations for Eucla

IDW60701

Issued at 8:23 pm WST Friday 20 October 2017 (issued every 10 minutes, with the page automatically refreshed every 10 minutes)

About coastal observations | Map of coastal stations | Coastal observations for WA | Marine services | Other Formats
Station Details ID: 011003 Name: EUCLA Lat: -31.68 Lon: 128.90 Height: 93.1 m
Data from the previous 72 hours. | See also: Recent months at Eucla
Date/Time
WST
Temp
°C
Wind Pressure Rain since
9am
mm
Weather Cloud Vis
km
Sea
Height
m
Swell
Dir  Spd
kts
Gust
kts
hPa Trend Height
m
Period
s
Dir
20/08:00pm 14.0 ESE 13 22 1031.1 - 0.0 - - - - - - -
20/07:30pm 14.2 ESE 12 20 1031.0 - 0.0 - - - - - - -
20/07:00pm 14.2 ESE 12 17 1030.6 - 0.0 - - - - - - -
20/06:30pm 14.1 SE 13 20 1030.2 - 0.0 - - - - - - -
20/06:00pm 14.3 ESE 13 19 1030.4 - 0.0 - - - - - - -
20/05:30pm 14.6 SE 12 17 1030.6 - 0.0 - - - - - - -
20/05:00pm 14.9 SE 11 17 1030.4 - 0.0 - - - - - - -
20/04:30pm 15.5 SE 11 17 1030.3 - 0.0 - - - - - - -
20/04:00pm 15.8 SE 13 20 1030.2 - 0.0 - - - - - - -
20/03:30pm 16.1 ESE 13 19 1030.0 - 0.0 - - - - - - -
20/03:00pm 16.8 ESE 12 21 1030.0 - 0.0 Haze Partly cloudy 25 - - - -
20/02:30pm 17.3 ESE 13 20 1030.0 - 0.0 - - - - - - -
20/02:00pm 18.2 SE 14 20 1030.1 - 0.0 - - - - - - -
20/01:30pm 17.7 ESE 12 18 1030.3 - 0.0 - - - - - - -
20/01:00pm 18.4 SE 12 19 1030.6 - 0.0 - - - - - - -
20/12:30pm 18.6 ESE 12 20 1031.0 - 0.0 - - - - - - -
20/12:00pm 18.9 ESE 12 20 1031.5 - 0.0 - - - - - - -
20/11:30am 18.2 ESE 14 21 1031.7 - 0.0 - - - - - - -
20/11:00am 18.0 ESE 11 18 1032.0 - 0.0 - - - - - - -
20/10:30am 17.6 SE 11 18 1032.2 - 0.0 - - - - - - -
20/10:00am 18.8 SE 12 17 1032.5 - 0.0 - - - - - - -
20/09:30am 18.1 ESE 11 19 1032.7 - 0.0 - - - - - - -
20/09:00am 17.9 ESE 12 21 1032.9 - 0.0 Haze Partly cloudy 25 - - - -
20/08:30am 16.9 ESE 11 20 1032.9 - 0.0 - - - - - - -
20/08:00am 16.7 ESE 11 17 1033.0 - 0.0 - - - - - - -
20/07:30am 15.9 ESE 12 17 1032.8 - 0.0 - - - - - - -
20/07:00am 15.8 ESE 11 16 1032.5 - 0.0 - - - - - - -
20/06:30am 16.7 ESE 12 18 1032.4 - 0.0 - - - - - - -
20/06:00am 15.2 ESE 9 14 1032.1 - 0.0 - - - - - - -
20/05:30am 14.3 SE 8 13 1031.9 - 0.0 - - - - - - -
20/05:00am 13.8 ESE 7 10 1031.6 - 0.0 - - - - - - -
20/04:30am 13.9 SE 9 14 1031.2 - 0.0 - - - - - - -
20/04:00am 14.3 ESE 8 13 1030.8 - 0.0 - - - - - - -
20/03:30am 14.2 SE 8 14 1030.5 - 0.0 - - - - - - -
20/03:00am 14.2 ESE 8 13 1030.4 - 0.0 - - - - - - -
20/02:30am 14.3 ESE 7 10 1030.2 - 0.0 - - - - - - -
20/02:00am 14.3 ESE 8 11 1030.3 - 0.0 - - - - - - -
20/01:30am 14.3 ESE 8 15 1030.5 - 0.0 - - - - - - -
20/01:00am 14.3 SE 10 15 1030.4 - 0.0 - - - - - - -
20/12:30am 14.4 ESE 9 15 1030.5 - 0.0 - - - - - - -
20/12:00am 14.4 ESE 10 18 1030.8 - 0.0 - - - - - - -
 
Date/Time
WST
Temp
°C
Wind Pressure Rain since
9am
mm
Weather Cloud Vis
km
Sea
Height
m
Swell
Dir  Spd
kts
Gust
kts
hPa Trend Height
m
Period
s
Dir
19/11:30pm 14.4 ESE 10 17 1031.0 - 0.0 - - - - - - -
19/11:00pm 14.4 SE 10 15 1031.2 - 0.0 - - - - - - -
19/10:30pm 14.4 SE 10 15 1031.3 - 0.0 - - - - - - -
19/10:00pm 14.4 SE 9 14 1031.2 - 0.0 - - - - - - -
19/09:30pm 14.4 SE 12 18 1031.1 - 0.0 - - - - - - -
19/09:00pm 14.3 SE 10 15 1031.0 - 0.0 - - - - - - -
19/08:30pm 14.4 SE 10 18 1030.8 - 0.0 - - - - - - -
19/08:00pm 14.6 SE 9 15 1030.7 - 0.0 - - - - - - -
19/07:30pm 14.5 SE 9 15 1030.5 - 0.0 - - - - - - -
19/07:00pm 14.4 SE 10 15 1030.1 - 0.0 - - - - - - -
19/06:30pm 14.5 SE 10 15 1029.8 - 0.0 - - - - - - -
19/06:00pm 14.3 SE 11 17 1029.4 - 0.0 - - - - - - -
19/05:30pm 14.6 SSE 11 17 1028.8 - 0.0 - - - - - - -
19/05:00pm 15.4 SSE 11 19 1028.7 - 0.0 - - - - - - -
19/04:30pm 15.9 SSE 13 18 1028.4 - 0.0 - - - - - - -
19/04:00pm 16.1 SSE 12 19 1028.0 - 0.0 - - - - - - -
19/03:30pm 16.9 SSE 13 21 1027.8 - 0.0 - - - - - - -
19/03:00pm 16.9 SSE 13 18 1027.5 - 0.0 Haze Partly cloudy 25 - - - -
19/02:30pm 18.0 SSE 11 18 1027.4 - 0.0 - - - - - - -
19/02:00pm 17.9 SSE 12 17 1027.4 - 0.0 - - - - - - -
19/01:30pm 18.4 S 12 18 1027.6 - 0.0 - - - - - - -
19/01:00pm 18.5 S 12 18 1027.8 - 0.0 - - - - - - -
19/12:30pm 18.9 S 12 19 1027.8 - 0.0 - - - - - - -
19/12:00pm 18.7 S 12 18 1028.0 - 0.0 - - - - - - -
19/11:30am 19.7 S 12 20 1027.9 - 0.0 - - - - - - -
19/11:00am 18.9 S 11 16 1027.9 - 0.0 - - - - - - -
19/10:30am 19.1 SSE 10 18 1028.0 - 0.0 - - - - - - -
19/10:00am 18.8 SSE 10 16 1028.0 - 0.0 - - - - - - -
19/09:30am 18.4 S 10 19 1028.0 - 0.0 - - - - - - -
19/09:00am 17.2 SSE 9 14 1027.8 - 0.0 Haze Partly cloudy 20 - - - -
19/08:30am 18.5 S 8 14 1027.6 - 0.0 - - - - - - -
19/08:00am 17.4 SSE 8 13 1027.2 - 0.0 - - - - - - -
19/07:30am 18.0 SSE 8 13 1026.7 - 0.0 - - - - - - -
19/07:00am 17.2 SSE 8 11 1026.4 - 0.0 - - - - - - -
19/06:30am 16.7 SSE 8 11 1026.1 - 0.0 - - - - - - -
19/06:00am 16.0 SSE 8 11 1025.7 - 0.0 - - - - - - -
19/05:30am 14.7 SSE 6 9 1025.3 - 0.0 - - - - - - -
19/05:00am 13.1 SSE 7 9 1024.9 - 0.0 - - - - - - -
19/04:30am 13.0 SSE 6 8 1024.3 - 0.0 - - - - - - -
19/04:00am 12.9 SSE 6 9 1023.6 - 0.0 - - - - - - -
19/03:30am 13.3 SSE 7 12 1023.1 - 0.0 - - - - - - -
19/03:00am 13.6 SSE 9 14 1022.7 - 0.0 - - - - - - -
19/02:30am 13.5 SSE 9 14 1022.2 - 0.0 - - - - - - -
19/02:00am 13.9 SSE 11 17 1022.0 - 0.0 - - - - - - -
19/01:30am 13.9 SSE 12 16 1022.0 - 0.0 - - - - - - -
19/01:00am 14.0 SSE 11 16 1021.9 - 0.0 - - - - - - -
19/12:30am 14.0 S 11 17 1022.0 - 0.0 - - - - - - -
19/12:00am 14.2 S 11 18 1022.1 - 0.0 - - - - - - -
 
Date/Time
WST
Temp
°C
Wind Pressure Rain since
9am
mm
Weather Cloud Vis
km
Sea
Height
m
Swell
Dir  Spd
kts
Gust
kts
hPa Trend Height
m
Period
s
Dir
18/11:30pm 14.2 S 10 15 1022.0 - 0.0 - - - - - - -
18/11:00pm 14.4 S 10 14 1022.0 - 0.0 - - - - - - -
18/10:30pm 14.6 S 10 16 1021.8 - 0.0 - - - - - - -
18/10:00pm 14.6 S 11 15 1021.7 - 0.0 - - - - - - -
18/09:30pm 14.8 S 11 18 1021.5 - 0.0 - - - - - - -
18/09:00pm 14.8 S 10 15 1021.2 - 0.0 - - - - - - -
18/08:30pm 15.0 S 10 17 1021.1 - 0.0 - - - - - - -
18/08:00pm 15.2 S 11 17 1020.9 - 0.0 - - - - - - -
18/07:30pm 15.3 S 10 17 1020.4 - 0.0 - - - - - - -
18/07:00pm 15.3 S 12 19 1019.9 - 0.0 - - - - - - -
18/06:30pm 15.5 S 14 20 1019.2 - 0.0 - - - - - - -
18/06:00pm 15.8 S 14 21 1018.4 - 0.0 - - - - - - -
18/05:30pm 16.1 S 14 21 1017.7 - 0.0 - - - - - - -
18/05:01pm 16.7 SSW 15 27 1017.0 - 0.0 - - - - - - -
18/05:00pm 16.7 SSW 14 27 1017.0 - 0.0 - - - - - - -
18/04:37pm 17.1 SSW 15 26 1016.6 - 0.0 - - - - - - -
18/04:30pm 17.3 SSW 15 24 1016.4 - 0.0 - - - - - - -
18/04:00pm 17.7 SSW 17 25 1015.7 - 0.0 - - - - - - -
18/03:30pm 18.4 SSW 16 24 1015.2 - 0.0 - - - - - - -
18/03:13pm 19.2 SSW 17 27 1014.9 - 0.0 - - - - - - -
18/03:00pm 19.3 SSW 16 25 1014.6 - 0.0 Haze Mostly clear 15 - - - -
18/02:40pm 20.1 SSW 16 28 1014.3 - 0.0 - - - - - - -
18/02:30pm 19.9 SSW 16 25 1014.1 - 0.0 - - - - - - -
18/02:03pm 20.3 SSW 18 28 1014.1 - 0.0 - - - - - - -
18/02:00pm 20.3 SSW 18 27 1014.0 - 0.0 - - - - - - -
18/01:38pm 20.9 SSW 18 28 1013.8 - 0.0 - - - - - - -
18/01:30pm 21.6 SSW 18 27 1013.6 - 0.0 - - - - - - -
18/01:00pm 20.7 SSW 16 26 1013.4 - 0.0 - - - - - - -
18/12:30pm 22.8 SSW 15 26 1013.1 - 0.0 - - - - - - -
18/12:25pm 23.3 SSW 15 26 1013.0 - 0.0 - - - - - - -
18/12:00pm 23.6 SSW 15 24 1012.7 - 0.0 - - - - - - -
18/11:30am 23.6 SSW 11 19 1012.4 - 0.0 - - - - - - -
18/11:00am 23.2 S 10 15 1012.2 - 0.0 - - - - - - -
18/10:30am 22.0 S 10 14 1012.0 - 0.0 - - - - - - -
18/10:00am 22.3 S 8 13 1011.6 - 0.0 - - - - - - -
18/09:30am 22.2 S 7 10 1011.4 - 0.0 - - - - - - -
18/09:00am 23.5 S 8 11 1011.5 - 0.0 Fine Partly cloudy 40 - - - -
18/08:30am 23.8 S 7 9 1011.2 - 0.0 - - - - - - -
18/08:00am 25.0 NNW 5 9 1010.8 - 0.0 - - - - - - -
18/07:30am 21.9 NW 5 7 1011.1 - 0.0 - - - - - - -
18/07:00am 19.3 NNW 6 8 1010.9 - 0.0 - - - - - - -
18/06:30am 18.1 NNW 4 5 1010.6 - 0.0 - - - - - - -
18/06:00am 16.9 CALM 0 0 1010.7 - 0.0 - - - - - - -
18/05:30am 16.0 NNW 4 5 1010.7 - 0.0 - - - - - - -
18/05:00am 15.6 W 3 3 1010.2 - 0.0 - - - - - - -
18/04:30am 15.7 CALM 0 0 1009.8 - 0.0 - - - - - - -
18/04:00am 16.2 CALM 0 0 1009.7 - 0.0 - - - - - - -
18/03:30am 16.4 SW 5 7 1009.3 - 0.0 - - - - - - -
18/03:00am 16.7 E 4 6 1008.7 - 0.0 - - - - - - -
18/02:30am 16.7 E 5 7 1008.8 - 0.0 - - - - - - -
18/02:00am 16.5 E 6 9 1008.8 - 0.0 - - - - - - -
18/01:30am 16.6 E 5 7 1009.0 - 0.0 - - - - - - -
18/01:00am 16.8 ENE 6 8 1008.9 - 0.0 - - - - - - -
18/12:30am 16.7 E 7 10 1008.8 - 0.0 - - - - - - -
18/12:00am 16.7 E 6 9 1009.0 - 0.0 - - - - - - -
 
Date/Time
WST
Temp
°C
Wind Pressure Rain since
9am
mm
Weather Cloud Vis
km
Sea
Height
m
Swell
Dir  Spd
kts
Gust
kts
hPa Trend Height
m
Period
s
Dir
17/11:30pm 16.9 ENE 7 10 1009.8 - 0.0 - - - - - - -
17/11:00pm 17.0 E 9 14 1009.6 - 0.0 - - - - - - -
17/10:30pm 17.0 ESE 7 12 1009.7 - 0.0 - - - - - - -
17/10:00pm 17.0 ESE 6 9 1010.1 - 0.0 - - - - - - -
17/09:30pm 17.2 SE 7 10 1010.2 - 0.0 - - - - - - -
17/09:00pm 17.3 SE 7 10 1010.5 - 0.0 - - - - - - -
17/08:30pm 17.5 ESE 7 11 1011.0 - 0.0 - - - - - - -

Other Formats:

Comma delimited format used in spreadsheet applications
http://www.bom.gov.au/fwo/IDW60701/IDW60701.94647.axf

JavaScript Object Notation format (JSON) in row-major order
http://www.bom.gov.au/fwo/IDW60701/IDW60701.94647.json